Time;durP1;ratioP1;P1;durP2;ratioP2;P2;SDS_P1;SDS_P2;PMS_P1;PMS_P2;Temp;Humidity;BMP_temperature;BMP_pressure;BME280_temperature;BME280_humidity;BME280_pressure;Samples;Min_cycle;Max_cycle;Signal;HPM_P1;HPM_P2
2023/09/20 00:00:54;;;;;;;5.57;1.17;;;18.50;87.40;;;;;;4994647;28;20029;-85
2023/09/20 00:03:20;;;;;;;5.28;1.13;;;18.50;87.40;;;;;;4994430;28;20026;-85
2023/09/20 00:05:49;;;;;;;4.68;1.15;;;18.50;87.40;;;;;;4994286;28;20477;-83
2023/09/20 00:08:15;;;;;;;4.60;1.15;;;18.50;87.40;;;;;;4976854;28;20030;-84
2023/09/20 00:10:41;;;;;;;5.20;1.20;;;18.60;87.40;;;;;;4994329;28;20025;-84
2023/09/20 00:13:10;;;;;;;5.82;1.30;;;18.60;87.50;;;;;;4994951;28;20063;-85
2023/09/20 00:15:36;;;;;;;7.53;1.40;;;18.50;87.40;;;;;;4994229;28;20554;-85
2023/09/20 00:18:01;;;;;;;7.20;1.33;;;18.60;87.50;;;;;;4976134;28;20042;-85
2023/09/20 00:20:27;;;;;;;7.93;1.50;;;18.60;87.50;;;;;;4976488;28;20069;-85
2023/09/20 00:22:53;;;;;;;8.90;1.40;;;18.60;87.50;;;;;;4976326;28;20027;-85
2023/09/20 00:25:20;;;;;;;5.68;1.10;;;18.60;87.60;;;;;;4976094;28;20061;-82
2023/09/20 00:27:46;;;;;;;9.10;1.50;;;18.50;87.50;;;;;;4994154;28;20080;-84
2023/09/20 00:30:17;;;;;;;5.55;1.20;;;18.60;87.60;;;;;;4994081;28;20030;-84
2023/09/20 00:32:43;;;;;;;5.30;1.20;;;18.60;87.60;;;;;;4976155;28;20026;-83
2023/09/20 00:35:19;;;;;;;5.95;1.63;;;18.60;87.60;;;;;;4976408;28;20029;-83
2023/09/20 00:37:46;;;;;;;7.15;1.35;;;18.60;87.60;;;;;;4993934;28;20033;-83
2023/09/20 00:40:18;;;;;;;6.07;1.60;;;18.60;87.70;;;;;;4993896;28;20026;-81
2023/09/20 00:42:45;;;;;;;9.63;1.70;;;18.50;87.70;;;;;;4993833;28;20068;-86
2023/09/20 00:45:15;;;;;;;6.63;1.42;;;18.60;87.80;;;;;;4993532;28;20484;-85
2023/09/20 00:47:44;;;;;;;6.68;1.40;;;18.60;88.40;;;;;;4993373;28;20026;-84
2023/09/20 00:50:11;;;;;;;6.30;1.65;;;18.70;87.80;;;;;;4993655;28;20022;-85
2023/09/20 00:52:51;;;;;;;6.72;1.75;;;18.60;87.80;;;;;;4993102;28;20027;-84
2023/09/20 00:55:20;;;;;;;8.25;1.67;;;18.60;87.80;;;;;;4993905;28;20542;-83
2023/09/20 00:57:48;;;;;;;7.60;1.95;;;18.60;87.80;;;;;;4993357;28;20033;-82
2023/09/20 01:00:21;;;;;;;5.32;1.70;;;18.60;87.90;;;;;;4976020;28;20018;-85
2023/09/20 01:02:52;;;;;;;5.93;1.40;;;18.60;88.00;;;;;;4993359;28;20027;-84
2023/09/20 01:05:21;;;;;;;8.02;1.48;;;18.50;88.10;;;;;;4993248;28;20066;-82
2023/09/20 01:07:51;;;;;;;7.95;1.33;;;18.50;88.10;;;;;;4992998;28;20120;-84
2023/09/20 01:10:23;;;;;;;7.05;1.52;;;18.50;88.00;;;;;;4976059;28;20026;-85
2023/09/20 01:12:51;;;;;;;7.72;1.48;;;18.60;88.10;;;;;;4992972;28;20111;-83
2023/09/20 01:15:17;;;;;;;9.88;1.48;;;18.60;88.10;;;;;;4993490;28;20507;-84
2023/09/20 01:17:46;;;;;;;7.50;1.63;;;18.50;88.00;;;;;;4975210;28;20023;-81
2023/09/20 01:20:13;;;;;;;7.15;1.67;;;18.50;88.10;;;;;;4975912;28;20199;-82
2023/09/20 01:22:39;;;;;;;8.88;1.60;;;18.40;88.10;;;;;;4975264;28;20085;-85
2023/09/20 01:25:09;;;;;;;10.52;2.53;;;18.40;88.40;;;;;;4975348;28;20201;-83
2023/09/20 01:27:35;;;;;;;5.63;1.17;;;18.30;88.20;;;;;;4992900;28;20480;-84
2023/09/20 01:30:02;;;;;;;7.25;1.60;;;18.30;88.30;;;;;;4975322;28;20052;-82
2023/09/20 01:32:29;;;;;;;8.30;1.70;;;18.20;88.40;;;;;;4992889;28;20165;-84
2023/09/20 01:34:55;;;;;;;6.70;1.45;;;18.20;88.70;;;;;;4992828;28;20069;-83
2023/09/20 01:37:21;;;;;;;9.25;1.88;;;18.10;88.60;;;;;;4993276;28;20135;-85
2023/09/20 01:39:46;;;;;;;5.15;1.38;;;18.10;89.00;;;;;;4992694;28;20023;-85
2023/09/20 01:42:12;;;;;;;11.45;1.58;;;18.00;89.60;;;;;;4992650;28;20022;-84
2023/09/20 01:44:38;;;;;;;7.97;1.70;;;18.00;89.20;;;;;;4974805;28;20049;-83
2023/09/20 01:47:04;;;;;;;8.07;1.25;;;17.90;89.30;;;;;;4975570;28;20117;-82
2023/09/20 01:49:32;;;;;;;6.90;1.52;;;17.90;89.40;;;;;;4992598;28;20538;-81
2023/09/20 01:51:58;;;;;;;6.45;1.70;;;17.80;89.60;;;;;;4974983;28;20480;-82
2023/09/20 01:54:26;;;;;;;7.32;1.67;;;17.80;89.90;;;;;;4974773;28;20032;-83
2023/09/20 01:56:52;;;;;;;4.93;1.27;;;17.80;90.00;;;;;;4992425;28;20395;-83
2023/09/20 01:59:19;;;;;;;6.18;1.38;;;17.80;90.10;;;;;;4974437;28;20026;-84
2023/09/20 02:01:45;;;;;;;6.68;1.33;;;17.70;90.20;;;;;;4992566;28;20058;-83
2023/09/20 02:04:10;;;;;;;6.78;1.55;;;17.70;90.20;;;;;;4992210;28;20061;-84
2023/09/20 02:06:36;;;;;;;5.82;1.38;;;17.60;90.30;;;;;;4974696;28;20034;-82
2023/09/20 02:09:04;;;;;;;9.77;1.80;;;17.60;90.40;;;;;;4974242;28;20145;-83
2023/09/20 02:11:29;;;;;;;5.47;1.20;;;17.60;90.60;;;;;;4991925;28;20064;-82
2023/09/20 02:13:55;;;;;;;5.28;1.20;;;17.60;90.60;;;;;;4991895;28;20058;-82
2023/09/20 02:16:21;;;;;;;8.68;1.55;;;17.50;90.50;;;;;;4992264;28;20030;-81
2023/09/20 02:18:48;;;;;;;8.07;1.50;;;17.60;90.60;;;;;;4992083;28;20034;-81
2023/09/20 02:21:14;;;;;;;7.72;1.88;;;17.50;90.60;;;;;;4991861;28;20022;-84
2023/09/20 02:23:39;;;;;;;5.38;1.95;;;17.50;90.70;;;;;;4957675;28;20054;-82
2023/09/20 02:26:05;;;;;;;5.72;1.65;;;17.40;90.80;;;;;;4991184;28;20022;-82
2023/09/20 02:28:31;;;;;;;5.40;1.60;;;17.40;90.80;;;;;;4990852;28;20034;-81
2023/09/20 02:30:57;;;;;;;6.72;1.73;;;17.40;90.90;;;;;;4974450;28;20022;-82
2023/09/20 02:33:23;;;;;;;10.05;1.67;;;17.30;90.90;;;;;;4991711;28;20026;-81
2023/09/20 02:35:48;;;;;;;6.95;1.63;;;17.40;91.10;;;;;;4974055;28;20528;-82
2023/09/20 02:38:14;;;;;;;4.70;1.38;;;17.30;91.00;;;;;;4992437;28;20389;-82
2023/09/20 02:40:40;;;;;;;6.20;1.67;;;17.30;91.00;;;;;;4992498;28;20469;-83
2023/09/20 02:43:08;;;;;;;6.25;1.13;;;17.30;90.90;;;;;;4991897;28;20034;-83
2023/09/20 02:45:36;;;;;;;7.25;1.67;;;17.30;91.10;;;;;;4992316;28;20030;-82
2023/09/20 02:48:06;;;;;;;4.25;1.20;;;17.30;91.00;;;;;;4991993;28;20042;-82
2023/09/20 02:50:32;;;;;;;2.97;1.20;;;17.20;91.00;;;;;;4992146;28;20032;-81
2023/09/20 02:52:58;;;;;;;4.03;0.95;;;17.20;91.00;;;;;;4991596;28;20057;-82
2023/09/20 02:55:24;;;;;;;4.88;1.40;;;17.20;91.10;;;;;;4992133;28;20026;-82
2023/09/20 02:57:52;;;;;;;7.07;1.52;;;17.10;91.20;;;;;;4992028;28;20120;-82
2023/09/20 03:00:29;;;;;;;4.80;1.20;;;17.30;91.20;;;;;;4992480;28;20026;-82
2023/09/20 03:02:57;;;;;;;5.10;1.20;;;17.10;91.30;;;;;;4974632;28;20030;-82
2023/09/20 03:05:28;;;;;;;5.63;1.30;;;17.10;91.30;;;;;;4974713;28;20019;-82
2023/09/20 03:07:54;;;;;;;4.63;1.10;;;17.00;91.30;;;;;;4974531;28;20061;-81
2023/09/20 03:10:21;;;;;;;3.40;1.10;;;17.00;91.60;;;;;;4992441;28;20038;-82
2023/09/20 03:12:51;;;;;;;5.80;1.20;;;17.00;91.40;;;;;;4991942;28;20113;-81
2023/09/20 03:15:22;;;;;;;6.15;1.30;;;17.00;91.50;;;;;;4974673;28;20027;-82
2023/09/20 03:17:49;;;;;;;7.20;1.58;;;16.90;91.50;;;;;;4991542;28;20085;-83
2023/09/20 03:20:25;;;;;;;3.55;1.35;;;17.00;91.50;;;;;;4994085;28;20034;-82
2023/09/20 03:22:57;;;;;;;8.32;1.33;;;16.90;91.60;;;;;;4995397;28;20026;-84
2023/09/20 03:25:24;;;;;;;6.90;1.20;;;16.90;91.70;;;;;;4994917;28;20050;-83
2023/09/20 03:27:51;;;;;;;5.20;1.88;;;16.80;91.90;;;;;;4977789;28;20031;-81
2023/09/20 03:30:20;;;;;;;5.97;1.08;;;16.70;91.80;;;;;;4995392;28;20125;-81
2023/09/20 03:32:46;;;;;;;6.70;1.70;;;16.70;91.90;;;;;;4977834;28;20026;-83
2023/09/20 03:35:13;;;;;;;7.80;1.45;;;16.80;92.10;;;;;;4994974;28;20031;-81
2023/09/20 03:37:40;;;;;;;5.40;1.38;;;16.70;92.00;;;;;;4995160;28;20069;-82
2023/09/20 03:40:10;;;;;;;5.30;1.65;;;16.70;92.20;;;;;;4995007;28;20022;-81
2023/09/20 03:42:40;;;;;;;6.50;1.40;;;16.70;92.20;;;;;;4995266;28;20023;-82
2023/09/20 03:45:09;;;;;;;5.03;1.63;;;16.70;92.20;;;;;;4994906;28;20113;-82
2023/09/20 03:47:35;;;;;;;6.95;1.48;;;16.70;92.30;;;;;;4994856;28;20030;-82
2023/09/20 03:50:01;;;;;;;5.20;1.27;;;16.80;92.40;;;;;;4994907;28;20049;-81
2023/09/20 03:52:27;;;;;;;7.20;1.50;;;16.70;92.40;;;;;;4977293;28;20566;-81
2023/09/20 03:54:53;;;;;;;4.10;1.10;;;16.60;92.50;;;;;;4994814;28;20032;-83
2023/09/20 03:57:24;;;;;;;5.13;1.27;;;16.70;92.60;;;;;;4994906;28;20052;-83
2023/09/20 03:59:53;;;;;;;5.38;1.35;;;16.70;92.60;;;;;;4994621;28;20061;-82
2023/09/20 04:02:23;;;;;;;6.47;1.33;;;16.70;92.60;;;;;;4994777;28;20077;-81
2023/09/20 04:04:50;;;;;;;6.57;1.60;;;16.70;92.70;;;;;;4994770;28;20030;-81
2023/09/20 04:07:16;;;;;;;8.30;1.58;;;16.70;92.70;;;;;;4994510;28;20030;-82
2023/09/20 04:09:41;;;;;;;7.43;1.45;;;16.80;92.70;;;;;;4977000;28;20035;-83
2023/09/20 04:12:07;;;;;;;8.55;1.20;;;16.90;92.80;;;;;;4977234;28;20580;-82
2023/09/20 04:14:33;;;;;;;6.93;1.40;;;16.80;92.90;;;;;;4994763;28;20454;-81
2023/09/20 04:16:59;;;;;;;6.00;1.50;;;16.90;92.90;;;;;;4994314;28;20392;-82
2023/09/20 04:19:24;;;;;;;6.20;1.33;;;16.90;93.10;;;;;;4994751;28;20027;-82
2023/09/20 04:21:50;;;;;;;4.40;1.27;;;16.90;93.00;;;;;;4994773;28;20034;-83
2023/09/20 04:24:17;;;;;;;6.20;1.40;;;17.00;93.10;;;;;;4976641;28;20054;-82
2023/09/20 04:26:43;;;;;;;6.32;1.27;;;17.00;93.10;;;;;;4994674;28;20031;-81
2023/09/20 04:29:10;;;;;;;7.30;2.13;;;17.00;93.10;;;;;;4994126;28;20038;-81
2023/09/20 04:31:36;;;;;;;5.82;1.70;;;17.00;93.10;;;;;;4976201;28;20018;-81
2023/09/20 04:34:15;;;;;;;4.85;1.75;;;17.00;93.20;;;;;;5067362;28;20785;-82
2023/09/20 04:36:44;;;;;;;6.53;1.73;;;17.00;93.20;;;;;;5068783;28;20025;-81
2023/09/20 04:39:14;;;;;;;9.10;1.90;;;17.00;93.30;;;;;;5067720;28;20021;-84
2023/09/20 04:41:40;;;;;;;5.18;1.58;;;17.00;93.30;;;;;;5067646;28;20032;-83
2023/09/20 04:44:05;;;;;;;6.65;1.45;;;17.00;93.40;;;;;;5068901;28;20025;-81
2023/09/20 04:46:35;;;;;;;4.95;1.33;;;17.00;93.50;;;;;;5069060;28;20441;-81
2023/09/20 04:49:03;;;;;;;6.72;2.17;;;16.90;93.50;;;;;;5067451;28;20063;-83
2023/09/20 04:51:28;;;;;;;11.80;2.22;;;17.10;93.50;;;;;;5068535;28;20063;-83
2023/09/20 04:53:55;;;;;;;5.93;1.73;;;16.90;93.70;;;;;;5067380;28;20584;-82
2023/09/20 04:56:20;;;;;;;6.55;1.73;;;16.90;93.80;;;;;;5068710;28;20115;-81
2023/09/20 04:58:46;;;;;;;6.95;1.60;;;16.90;93.70;;;;;;5068679;28;20104;-85
2023/09/20 05:01:12;;;;;;;6.78;2.10;;;16.90;93.80;;;;;;5066997;28;20047;-81
2023/09/20 05:03:39;;;;;;;8.05;2.00;;;16.80;93.70;;;;;;5068675;28;20059;-84
2023/09/20 05:06:05;;;;;;;7.15;2.08;;;16.80;93.90;;;;;;5068339;28;20031;-81
2023/09/20 05:08:31;;;;;;;8.57;1.63;;;16.70;93.90;;;;;;5068282;28;20025;-82
2023/09/20 05:10:57;;;;;;;7.63;1.58;;;16.80;94.10;;;;;;5068624;28;20032;-81
2023/09/20 05:13:23;;;;;;;5.38;1.63;;;16.80;94.10;;;;;;5068451;28;20075;-82
2023/09/20 05:15:50;;;;;;;5.30;1.73;;;16.70;94.10;;;;;;5066571;28;20025;-80
2023/09/20 05:18:16;;;;;;;8.10;1.45;;;16.70;94.10;;;;;;5051728;28;20057;-81
2023/09/20 05:20:45;;;;;;;5.40;1.42;;;16.70;94.10;;;;;;5027505;28;20484;-80
2023/09/20 05:23:13;;;;;;;7.40;1.85;;;16.70;94.10;;;;;;5046302;28;20530;-80
2023/09/20 05:28:15;;;;;;;5.60;1.52;;;16.70;94.20;;;;;;5233955;22;20062;-87
2023/09/20 05:30:44;;;;;;;8.25;2.00;;;16.60;94.30;;;;;;5042025;28;20503;-89
2023/09/20 05:33:11;;;;;;;5.32;1.52;;;16.60;94.50;;;;;;5033284;28;20125;-87
2023/09/20 05:35:39;;;;;;;8.48;2.10;;;16.60;94.40;;;;;;5031635;28;20033;-88
2023/09/20 05:38:10;;;;;;;11.55;2.00;;;16.70;94.40;;;;;;5031623;28;20045;-89
2023/09/20 05:40:36;;;;;;;6.80;1.50;;;16.50;94.40;;;;;;5030592;28;20034;-87
2023/09/20 05:43:03;;;;;;;9.02;1.65;;;16.60;94.50;;;;;;5029269;28;20022;-87
2023/09/20 05:45:31;;;;;;;6.97;1.52;;;16.60;94.60;;;;;;5009053;28;20026;-85
2023/09/20 05:47:58;;;;;;;7.25;1.65;;;16.50;94.60;;;;;;5002966;28;20105;-88
2023/09/20 05:50:33;;;;;;;8.55;1.75;;;16.70;94.70;;;;;;5007869;28;20026;-89
2023/09/20 05:53:03;;;;;;;7.38;1.33;;;16.60;94.70;;;;;;5014813;28;20075;-91
2023/09/20 05:55:33;;;;;;;5.03;1.80;;;16.70;94.70;;;;;;5017510;28;20018;-87
2023/09/20 05:58:02;;;;;;;7.85;1.52;;;16.70;94.80;;;;;;5014893;28;20021;-88
2023/09/20 06:00:29;;;;;;;8.73;1.95;;;16.70;94.80;;;;;;5015355;28;20056;-91
2023/09/20 06:02:56;;;;;;;6.75;1.83;;;16.70;94.90;;;;;;5007186;28;20026;-82
2023/09/20 06:05:24;;;;;;;6.45;1.67;;;16.80;95.10;;;;;;5017900;28;20029;-88
2023/09/20 06:07:53;;;;;;;5.75;1.48;;;16.80;95.00;;;;;;5017562;28;20033;-85
2023/09/20 06:10:20;;;;;;;6.88;1.40;;;16.90;95.10;;;;;;5012945;28;20025;-88
2023/09/20 06:12:46;;;;;;;5.07;1.52;;;16.90;95.10;;;;;;5016847;28;20038;-89
2023/09/20 06:15:15;;;;;;;4.85;1.70;;;16.90;95.10;;;;;;5014795;28;20403;-88
2023/09/20 06:17:47;;;;;;;5.60;1.80;;;16.90;95.20;;;;;;5010154;28;20026;-87
2023/09/20 06:20:19;;;;;;;6.30;1.80;;;17.00;95.30;;;;;;5011451;28;20676;-84
2023/09/20 06:22:51;;;;;;;7.78;1.52;;;17.00;95.20;;;;;;5011958;28;20049;-89
2023/09/20 06:25:19;;;;;;;5.90;1.55;;;17.00;95.20;;;;;;5015525;28;20392;-90
2023/09/20 06:27:45;;;;;;;5.32;1.48;;;17.10;95.20;;;;;;5011781;28;20018;-91
2023/09/20 06:30:13;;;;;;;7.57;1.88;;;17.10;95.20;;;;;;5013505;28;20029;-89
2023/09/20 06:32:40;;;;;;;10.43;1.98;;;17.20;95.20;;;;;;5014921;28;20121;-88
2023/09/20 06:35:07;;;;;;;7.65;1.75;;;17.40;95.20;;;;;;5011779;28;20038;-85
2023/09/20 06:37:34;;;;;;;6.38;1.63;;;17.30;95.10;;;;;;5014821;28;20093;-85
2023/09/20 06:40:00;;;;;;;6.07;1.80;;;17.30;95.10;;;;;;5016968;28;20171;-83
2023/09/20 06:42:29;;;;;;;12.60;1.98;;;17.30;95.10;;;;;;5016250;28;20435;-89
2023/09/20 06:44:55;;;;;;;5.70;1.67;;;17.40;95.10;;;;;;5015519;28;20070;-88
2023/09/20 06:47:21;;;;;;;4.57;1.58;;;17.40;95.10;;;;;;5015772;28;20030;-85
2023/09/20 06:49:47;;;;;;;7.68;2.13;;;17.40;95.10;;;;;;5014692;28;20022;-90
2023/09/20 06:52:13;;;;;;;8.75;1.67;;;17.40;95.10;;;;;;5014369;28;20036;-90
2023/09/20 06:54:39;;;;;;;6.65;1.52;;;17.30;95.00;;;;;;5014901;28;20032;-87
2023/09/20 06:57:05;;;;;;;5.63;1.80;;;17.50;95.00;;;;;;5013673;28;20030;-87
2023/09/20 06:59:37;;;;;;;6.43;1.45;;;17.50;95.00;;;;;;5014740;28;20030;-88
2023/09/20 07:02:03;;;;;;;8.05;1.65;;;17.60;95.00;;;;;;5013688;28;20076;-84
2023/09/20 07:04:30;;;;;;;3.72;1.42;;;17.60;95.00;;;;;;5013477;28;20030;-83
2023/09/20 07:06:57;;;;;;;3.58;1.48;;;17.60;94.90;;;;;;5012455;28;20376;-87
2023/09/20 07:09:23;;;;;;;5.65;1.42;;;17.70;95.00;;;;;;5009215;28;20030;-86
2023/09/20 07:11:50;;;;;;;4.35;1.50;;;17.70;95.00;;;;;;5014291;28;20083;-91
2023/09/20 07:14:20;;;;;;;5.40;1.90;;;17.70;94.90;;;;;;5013735;28;20446;-83
2023/09/20 07:16:47;;;;;;;7.78;1.98;;;17.80;94.90;;;;;;5013356;28;20050;-87
2023/09/20 07:19:13;;;;;;;7.47;1.77;;;17.80;94.80;;;;;;5013347;28;20092;-89
2023/09/20 07:21:39;;;;;;;6.18;1.52;;;17.80;94.70;;;;;;5013345;28;20499;-84
2023/09/20 07:24:06;;;;;;;4.35;1.13;;;18.00;94.80;;;;;;5012937;28;20030;-85
2023/09/20 07:26:32;;;;;;;4.63;1.38;;;18.00;94.80;;;;;;5014249;28;20083;-84
2023/09/20 07:28:59;;;;;;;5.38;1.67;;;18.10;94.70;;;;;;5013851;28;20495;-84
2023/09/20 07:31:26;;;;;;;5.47;1.58;;;18.20;94.60;;;;;;5014039;28;20034;-84
2023/09/20 07:33:54;;;;;;;5.07;1.50;;;18.20;94.50;;;;;;5014077;28;20033;-82
2023/09/20 07:36:20;;;;;;;6.05;1.60;;;18.30;94.40;;;;;;5014494;28;20030;-87
2023/09/20 07:38:46;;;;;;;7.88;1.60;;;18.40;94.10;;;;;;5015782;28;20025;-84
2023/09/20 07:41:17;;;;;;;6.35;1.38;;;18.40;94.10;;;;;;5015395;28;20025;-86
2023/09/20 07:43:47;;;;;;;9.27;1.75;;;18.40;94.00;;;;;;5013857;28;20562;-86
2023/09/20 07:46:14;;;;;;;6.10;1.30;;;18.50;93.90;;;;;;5014605;28;20060;-86
2023/09/20 07:49:09;;;;;;;3.80;1.10;;;18.50;93.70;;;;;;5015698;28;20024;-82
2023/09/20 07:51:28;;;;;;;6.70;1.50;;;18.60;93.60;;;;;;5015091;28;20034;-83
2023/09/20 07:53:55;;;;;;;3.10;1.25;;;18.70;93.60;;;;;;5014765;28;20045;-86
2023/09/20 07:56:21;;;;;;;5.10;1.42;;;18.70;93.20;;;;;;5014844;28;20083;-85
2023/09/20 07:58:47;;;;;;;4.28;1.15;;;18.70;93.40;;;;;;5013934;28;20105;-88
2023/09/20 08:01:21;;;;;;;4.53;1.10;;;18.80;93.40;;;;;;5013274;28;20112;-85
2023/09/20 08:03:58;;;;;;;6.70;1.50;;;18.90;93.10;;;;;;5014182;28;20026;-83
2023/09/20 08:06:25;;;;;;;5.00;1.25;;;18.90;93.00;;;;;;5014706;28;20021;-82
2023/09/20 08:08:50;;;;;;;3.92;1.50;;;19.00;93.00;;;;;;5012942;28;20026;-82
2023/09/20 08:11:16;;;;;;;4.60;1.17;;;19.10;92.90;;;;;;5012939;28;20022;-84
2023/09/20 08:13:42;;;;;;;7.47;1.48;;;19.20;92.70;;;;;;5015072;28;20044;-80
2023/09/20 08:16:10;;;;;;;8.13;1.20;;;19.20;92.50;;;;;;5015506;28;20026;-84
2023/09/20 08:21:25;;;;;;;3.25;1.13;;;19.40;92.20;;;;;;5014237;28;20037;-87
2023/09/20 08:59:52;;;;;;;5.70;0.98;;;19.80;90.90;;;;;;5013581;28;20065;-80
2023/09/20 09:02:18;;;;;;;3.00;1.20;;;19.90;90.50;;;;;;5013364;28;20487;-84
2023/09/20 09:04:45;;;;;;;3.47;1.05;;;19.90;90.10;;;;;;5013996;28;20053;-85
2023/09/20 09:07:14;;;;;;;3.85;1.05;;;19.80;90.10;;;;;;5013187;28;20042;-83
2023/09/20 09:09:40;;;;;;;3.65;1.13;;;19.80;90.10;;;;;;5013858;28;20172;-80
2023/09/20 09:12:07;;;;;;;9.93;1.30;;;19.80;90.10;;;;;;5012287;28;20032;-81
2023/09/20 09:14:35;;;;;;;2.95;1.13;;;19.90;90.20;;;;;;5013478;28;20472;-87
2023/09/20 09:17:05;;;;;;;4.68;1.30;;;19.90;90.10;;;;;;5013514;28;20491;-85
2023/09/20 09:19:30;;;;;;;5.00;1.42;;;19.80;89.70;;;;;;5013851;28;20128;-86
2023/09/20 09:21:57;;;;;;;3.30;0.95;;;19.90;89.70;;;;;;5017138;28;20089;-83
2023/09/20 09:24:23;;;;;;;3.15;1.25;;;20.00;90.00;;;;;;5017332;28;20030;-84
2023/09/20 09:26:49;;;;;;;5.50;1.20;;;20.10;89.30;;;;;;5015100;28;20090;-82
2023/09/20 09:29:18;;;;;;;4.63;1.45;;;20.20;88.30;;;;;;5015264;28;20049;-83
2023/09/20 09:31:50;;;;;;;4.47;1.25;;;20.10;88.20;;;;;;5016167;28;20117;-82
2023/09/20 09:34:21;;;;;;;4.90;1.30;;;20.20;88.60;;;;;;5016902;28;20096;-87
2023/09/20 09:36:47;;;;;;;5.20;1.42;;;20.20;88.30;;;;;;5016517;28;20092;-85
2023/09/20 09:39:14;;;;;;;4.00;1.60;;;20.40;88.00;;;;;;5015912;28;20486;-82
2023/09/20 09:41:44;;;;;;;6.88;1.88;;;20.50;87.60;;;;;;5014359;28;20022;-90
2023/09/20 09:44:10;;;;;;;6.25;1.50;;;20.60;87.10;;;;;;5015782;28;20120;-82
2023/09/20 09:46:38;;;;;;;3.10;1.15;;;20.50;86.30;;;;;;5016438;28;20030;-82
2023/09/20 09:49:10;;;;;;;6.80;1.85;;;20.50;86.60;;;;;;5015549;28;20029;-85
2023/09/20 09:51:50;;;;;;;4.50;1.73;;;20.60;86.70;;;;;;5013993;28;20017;-81
2023/09/20 09:54:20;;;;;;;7.13;1.80;;;20.70;86.40;;;;;;5014376;28;20030;-82
2023/09/20 09:56:47;;;;;;;8.02;1.60;;;20.80;86.00;;;;;;5015814;28;20033;-85
2023/09/20 09:59:13;;;;;;;5.65;1.90;;;20.90;85.60;;;;;;5015578;28;20037;-84
2023/09/20 10:01:40;;;;;;;5.50;1.88;;;21.10;85.70;;;;;;5016036;28;20041;-87
2023/09/20 10:04:08;;;;;;;4.35;1.60;;;21.30;85.30;;;;;;5015552;28;20083;-83
2023/09/20 10:06:57;;;;;;;6.68;1.40;;;21.50;85.10;;;;;;5013951;28;20030;-84
2023/09/20 10:09:27;;;;;;;6.10;1.80;;;21.50;83.50;;;;;;5016511;28;20041;-85
2023/09/20 10:11:53;;;;;;;6.35;1.73;;;21.60;83.80;;;;;;5015690;28;20127;-82
2023/09/20 10:14:22;;;;;;;4.55;1.40;;;21.60;83.40;;;;;;5015602;28;20034;-84
2023/09/20 10:16:48;;;;;;;5.65;1.33;;;21.70;83.50;;;;;;5014642;28;20029;-88
2023/09/20 10:19:14;;;;;;;5.70;1.67;;;21.90;83.20;;;;;;5013879;28;20400;-86
2023/09/20 10:21:59;;;;;;;4.40;1.55;;;21.90;82.90;;;;;;5014060;28;20057;-88
2023/09/20 10:24:28;;;;;;;4.90;1.40;;;22.00;82.20;;;;;;5015219;28;20026;-90
2023/09/20 10:26:57;;;;;;;6.07;1.73;;;22.00;81.70;;;;;;5015149;28;20109;-84
2023/09/20 10:29:26;;;;;;;5.43;1.60;;;22.00;80.70;;;;;;5015588;28;20046;-86
2023/09/20 10:32:06;;;;;;;4.68;1.30;;;21.80;80.70;;;;;;5016886;28;20522;-86
2023/09/20 10:34:37;;;;;;;3.13;1.30;;;21.80;81.10;;;;;;5016167;28;20109;-81
2023/09/20 10:37:08;;;;;;;5.55;1.52;;;21.90;80.90;;;;;;5015766;28;20396;-82
2023/09/20 10:39:34;;;;;;;4.45;1.40;;;21.80;80.90;;;;;;5016643;28;20026;-86
2023/09/20 10:42:10;;;;;;;3.78;1.20;;;21.90;81.00;;;;;;5016853;28;20128;-87
2023/09/20 10:44:38;;;;;;;4.65;1.42;;;21.90;80.80;;;;;;5015827;28;20029;-84
2023/09/20 10:47:09;;;;;;;3.13;1.35;;;21.90;80.50;;;;;;5015418;28;20026;-81
2023/09/20 10:49:41;;;;;;;2.78;0.95;;;22.20;81.00;;;;;;5016929;28;20097;-81
2023/09/20 10:52:07;;;;;;;5.38;1.17;;;22.60;80.80;;;;;;5013866;28;20511;-81
2023/09/20 10:54:36;;;;;;;3.38;0.93;;;23.10;80.50;;;;;;5014228;28;20029;-85
2023/09/20 10:57:05;;;;;;;4.80;1.50;;;23.60;79.10;;;;;;5014527;28;20022;-80
2023/09/20 10:59:31;;;;;;;4.72;1.17;;;23.80;77.00;;;;;;5016005;28;20026;-82
2023/09/20 11:02:08;;;;;;;3.42;0.90;;;23.70;76.50;;;;;;5015106;28;20029;-88
2023/09/20 11:04:34;;;;;;;4.25;1.55;;;23.80;75.70;;;;;;5015284;28;20386;-82
2023/09/20 11:07:02;;;;;;;3.15;0.90;;;23.80;75.10;;;;;;5016805;28;20026;-83
2023/09/20 11:09:33;;;;;;;2.83;0.93;;;23.70;75.40;;;;;;5015066;28;20084;-88
2023/09/20 11:12:06;;;;;;;3.35;1.10;;;23.70;75.40;;;;;;5016083;28;20109;-89
2023/09/20 11:14:33;;;;;;;4.45;1.00;;;23.70;74.60;;;;;;5014576;28;20403;-83
2023/09/20 11:16:59;;;;;;;4.60;1.15;;;23.80;73.80;;;;;;5016407;28;20423;-86
2023/09/20 11:19:25;;;;;;;2.85;0.80;;;23.80;73.40;;;;;;5016370;28;20387;-83
2023/09/20 11:21:52;;;;;;;3.85;0.95;;;23.70;73.60;;;;;;5016185;28;20383;-82
2023/09/20 11:24:19;;;;;;;4.50;0.93;;;23.70;73.40;;;;;;5015337;28;20033;-85
2023/09/20 11:26:47;;;;;;;4.30;0.82;;;23.80;72.90;;;;;;5014183;28;20025;-84
2023/09/20 11:29:15;;;;;;;2.92;0.80;;;23.80;73.10;;;;;;5015052;28;20046;-83
2023/09/20 11:31:44;;;;;;;3.13;0.80;;;23.90;73.20;;;;;;5016327;28;20033;-87
2023/09/20 11:34:10;;;;;;;5.38;0.98;;;23.90;72.80;;;;;;5016514;28;20139;-83
2023/09/20 11:36:38;;;;;;;3.03;0.70;;;23.90;72.20;;;;;;5015651;28;20026;-82
2023/09/20 11:39:05;;;;;;;2.55;0.88;;;23.80;72.00;;;;;;5015383;28;20457;-80
2023/09/20 11:41:32;;;;;;;4.05;0.90;;;23.80;71.70;;;;;;5014061;28;20072;-82
2023/09/20 11:43:58;;;;;;;3.05;0.80;;;23.70;71.80;;;;;;5015240;28;20022;-90
2023/09/20 11:46:28;;;;;;;2.17;0.73;;;23.80;72.70;;;;;;5015437;28;20447;-83
2023/09/20 11:49:03;;;;;;;5.28;0.77;;;24.10;72.30;;;;;;5014336;28;20029;-88
2023/09/20 11:51:32;;;;;;;2.95;0.80;;;24.70;71.10;;;;;;5015884;28;20036;-84
2023/09/20 11:53:59;;;;;;;2.90;0.60;;;25.20;70.90;;;;;;5013481;28;20054;-85
2023/09/20 11:56:29;;;;;;;2.75;0.85;;;25.70;69.80;;;;;;5014562;28;20101;-83
2023/09/20 11:59:00;;;;;;;1.90;0.60;;;26.00;68.60;;;;;;5015229;28;20048;-86
2023/09/20 12:01:29;;;;;;;3.50;0.70;;;26.30;68.50;;;;;;5015082;28;20021;-84
2023/09/20 12:03:55;;;;;;;3.65;0.90;;;26.70;67.50;;;;;;5015994;28;20044;-84
2023/09/20 12:06:21;;;;;;;2.63;0.73;;;26.90;65.80;;;;;;5013833;28;20499;-88
2023/09/20 12:08:47;;;;;;;4.05;0.68;;;26.80;65.50;;;;;;5015260;28;20022;-90
2023/09/20 12:11:14;;;;;;;3.40;0.70;;;26.70;65.10;;;;;;5013751;28;20021;-86
2023/09/20 12:13:41;;;;;;;2.90;0.60;;;26.60;65.40;;;;;;5014612;28;20095;-88
2023/09/20 12:16:08;;;;;;;5.65;0.80;;;26.70;64.30;;;;;;5013482;28;20022;-88
2023/09/20 12:18:36;;;;;;;3.75;1.00;;;26.70;63.50;;;;;;5013898;28;20048;-84
2023/09/20 12:21:02;;;;;;;2.30;0.70;;;26.60;62.60;;;;;;5012824;28;20547;-85
2023/09/20 12:23:29;;;;;;;4.22;1.33;;;26.60;63.00;;;;;;5014212;28;20069;-89
2023/09/20 12:25:54;;;;;;;3.45;0.57;;;26.40;62.90;;;;;;5014113;28;20105;-88
2023/09/20 12:28:20;;;;;;;2.97;0.73;;;26.20;63.50;;;;;;5014091;28;20074;-87
2023/09/20 12:30:45;;;;;;;3.10;0.80;;;26.00;63.70;;;;;;5012624;28;20749;-85
2023/09/20 12:33:11;;;;;;;4.60;0.90;;;25.90;63.90;;;;;;5013696;28;20475;-84
2023/09/20 12:35:40;;;;;;;7.60;0.80;;;25.70;64.20;;;;;;5013250;28;20022;-85
2023/09/20 12:38:06;;;;;;;4.70;0.80;;;25.70;64.40;;;;;;5012146;28;20088;-81
2023/09/20 12:40:32;;;;;;;3.58;1.13;;;25.60;64.50;;;;;;5012044;28;20021;-85
2023/09/20 12:43:01;;;;;;;4.25;1.00;;;25.60;64.70;;;;;;5013951;28;20026;-82
2023/09/20 12:45:26;;;;;;;2.67;0.80;;;25.80;64.90;;;;;;5014718;28;20065;-83
2023/09/20 12:47:52;;;;;;;4.57;0.80;;;25.90;64.60;;;;;;5012894;28;20495;-81
2023/09/20 12:50:18;;;;;;;2.40;0.80;;;26.40;64.10;;;;;;5012641;28;20026;-88
2023/09/20 12:52:47;;;;;;;6.75;0.80;;;26.80;62.80;;;;;;5013461;28;20184;-85
2023/09/20 12:55:13;;;;;;;5.38;0.88;;;26.90;61.90;;;;;;5016292;28;20492;-82
2023/09/20 12:57:40;;;;;;;3.30;0.90;;;26.80;60.60;;;;;;5016830;28;20121;-84
2023/09/20 13:00:08;;;;;;;2.95;0.80;;;26.60;60.70;;;;;;5018729;28;20115;-85
2023/09/20 13:02:34;;;;;;;4.40;1.00;;;26.60;61.00;;;;;;5018616;28;20064;-83
2023/09/20 13:05:00;;;;;;;6.22;0.95;;;26.40;60.70;;;;;;5018044;28;20022;-84
2023/09/20 13:07:29;;;;;;;3.33;0.85;;;26.40;61.20;;;;;;5018316;28;20080;-84
2023/09/20 13:09:57;;;;;;;3.80;1.10;;;26.60;62.20;;;;;;5017065;28;20022;-84
2023/09/20 13:12:23;;;;;;;6.35;0.80;;;27.20;62.40;;;;;;5017038;28;20026;-84
2023/09/20 13:14:48;;;;;;;3.55;0.90;;;27.70;60.20;;;;;;5015569;28;20496;-84
2023/09/20 13:17:15;;;;;;;2.20;0.80;;;28.10;58.70;;;;;;5016939;28;20041;-85
2023/09/20 13:19:41;;;;;;;4.13;0.70;;;28.50;58.00;;;;;;5015694;28;20073;-81
2023/09/20 13:22:09;;;;;;;3.95;0.77;;;28.90;57.60;;;;;;5017216;28;20468;-82
2023/09/20 13:24:35;;;;;;;4.93;0.90;;;29.40;56.10;;;;;;5017113;28;20029;-87
2023/09/20 13:27:03;;;;;;;4.25;1.10;;;29.70;55.90;;;;;;5017147;28;20048;-82
2023/09/20 13:29:29;;;;;;;2.70;0.98;;;29.80;54.80;;;;;;5016712;28;20073;-81